sensor_id;sensor_type;location;lat;lon;timestamp;pressure;altitude;pressure_sealevel;temperature;humidity
46710;BME280;32442;51.514;-0.178;2023-02-11T00:00:33;103300.41;;;21.23;36.14
46710;BME280;32442;51.514;-0.178;2023-02-11T00:03:00;103304.31;;;21.22;36.46
46710;BME280;32442;51.514;-0.178;2023-02-11T00:05:27;103318.97;;;21.24;36.12
46710;BME280;32442;51.514;-0.178;2023-02-11T00:07:54;103324.28;;;21.21;36.28
46710;BME280;32442;51.514;-0.178;2023-02-11T00:10:21;103322.81;;;21.18;36.09
46710;BME280;32442;51.514;-0.178;2023-02-11T00:12:48;103317.44;;;21.17;36.39
46710;BME280;32442;51.514;-0.178;2023-02-11T00:15:15;103321.19;;;21.22;36.41
46710;BME280;32442;51.514;-0.178;2023-02-11T00:17:42;103314.97;;;21.20;36.40
46710;BME280;32442;51.514;-0.178;2023-02-11T00:20:09;103318.66;;;21.21;36.79
46710;BME280;32442;51.514;-0.178;2023-02-11T00:22:36;103312.66;;;21.17;36.59
46710;BME280;32442;51.514;-0.178;2023-02-11T00:25:03;103322.22;;;21.16;37.05
46710;BME280;32442;51.514;-0.178;2023-02-11T00:27:30;103325.28;;;21.15;36.82
46710;BME280;32442;51.514;-0.178;2023-02-11T00:29:57;103315.13;;;21.14;37.01
46710;BME280;32442;51.514;-0.178;2023-02-11T00:32:26;103313.91;;;21.10;37.30
46710;BME280;32442;51.514;-0.178;2023-02-11T00:34:52;103317.81;;;21.09;37.53
46710;BME280;32442;51.514;-0.178;2023-02-11T00:37:21;103318.94;;;21.08;37.35
46710;BME280;32442;51.514;-0.178;2023-02-11T00:39:47;103326.78;;;21.06;37.63
46710;BME280;32442;51.514;-0.178;2023-02-11T00:42:15;103324.22;;;21.04;37.69
46710;BME280;32442;51.514;-0.178;2023-02-11T00:44:42;103325.59;;;21.02;37.99
46710;BME280;32442;51.514;-0.178;2023-02-11T00:47:09;103324.72;;;21.01;37.68
46710;BME280;32442;51.514;-0.178;2023-02-11T00:49:36;103335.13;;;21.01;37.84
46710;BME280;32442;51.514;-0.178;2023-02-11T00:52:05;103330.88;;;20.98;37.94
46710;BME280;32442;51.514;-0.178;2023-02-11T00:54:32;103323.53;;;20.97;38.24
46710;BME280;32442;51.514;-0.178;2023-02-11T00:56:59;103326.34;;;20.97;38.32
46710;BME280;32442;51.514;-0.178;2023-02-11T00:59:26;103322.69;;;20.97;38.18
46710;BME280;32442;51.514;-0.178;2023-02-11T01:01:53;103325.16;;;20.93;38.27
46710;BME280;32442;51.514;-0.178;2023-02-11T01:04:20;103322.34;;;20.93;38.30
46710;BME280;32442;51.514;-0.178;2023-02-11T01:06:47;103328.19;;;20.92;38.59
46710;BME280;32442;51.514;-0.178;2023-02-11T01:09:14;103325.41;;;20.92;38.32
46710;BME280;32442;51.514;-0.178;2023-02-11T01:11:41;103331.53;;;20.89;38.48
46710;BME280;32442;51.514;-0.178;2023-02-11T01:14:08;103328.97;;;20.87;38.56
46710;BME280;32442;51.514;-0.178;2023-02-11T01:16:35;103323.34;;;20.87;38.48
46710;BME280;32442;51.514;-0.178;2023-02-11T01:19:02;103317.38;;;20.83;38.51
46710;BME280;32442;51.514;-0.178;2023-02-11T01:21:29;103312.84;;;20.82;38.91
46710;BME280;32442;51.514;-0.178;2023-02-11T01:23:56;103306.91;;;20.79;38.95
46710;BME280;32442;51.514;-0.178;2023-02-11T01:26:23;103314.47;;;20.78;38.79
46710;BME280;32442;51.514;-0.178;2023-02-11T01:28:49;103312.75;;;20.77;39.04
46710;BME280;32442;51.514;-0.178;2023-02-11T01:31:16;103317.19;;;20.73;39.11
46710;BME280;32442;51.514;-0.178;2023-02-11T01:33:43;103315.22;;;20.74;39.11
46710;BME280;32442;51.514;-0.178;2023-02-11T01:36:10;103321.09;;;20.72;39.08
46710;BME280;32442;51.514;-0.178;2023-02-11T01:38:37;103321.59;;;20.69;39.42
46710;BME280;32442;51.514;-0.178;2023-02-11T01:41:07;103323.81;;;20.67;39.39
46710;BME280;32442;51.514;-0.178;2023-02-11T01:43:37;103315.66;;;20.66;39.50
46710;BME280;32442;51.514;-0.178;2023-02-11T01:46:11;103305.25;;;20.66;39.53
46710;BME280;32442;51.514;-0.178;2023-02-11T01:48:41;103314.56;;;20.67;39.62
46710;BME280;32442;51.514;-0.178;2023-02-11T01:53:39;103304.88;;;20.63;39.65
46710;BME280;32442;51.514;-0.178;2023-02-11T01:56:09;103303.69;;;20.59;39.59
46710;BME280;32442;51.514;-0.178;2023-02-11T01:58:40;103294.94;;;20.55;40.15
46710;BME280;32442;51.514;-0.178;2023-02-11T02:01:10;103306.16;;;20.55;40.20
46710;BME280;32442;51.514;-0.178;2023-02-11T02:03:39;103297.72;;;20.55;39.86
46710;BME280;32442;51.514;-0.178;2023-02-11T02:06:10;103304.72;;;20.53;40.06
46710;BME280;32442;51.514;-0.178;2023-02-11T02:11:07;103303.16;;;20.45;40.43
46710;BME280;32442;51.514;-0.178;2023-02-11T02:13:34;103310.22;;;20.48;40.10
46710;BME280;32442;51.514;-0.178;2023-02-11T02:16:03;103306.56;;;20.47;40.26
46710;BME280;32442;51.514;-0.178;2023-02-11T02:23:34;103299.75;;;20.43;40.13
46710;BME280;32442;51.514;-0.178;2023-02-11T02:28:37;103296.84;;;20.38;40.48
46710;BME280;32442;51.514;-0.178;2023-02-11T02:31:21;103284.75;;;20.37;40.80
46710;BME280;32442;51.514;-0.178;2023-02-11T02:33:52;103283.31;;;20.35;40.79
46710;BME280;32442;51.514;-0.178;2023-02-11T02:36:22;103286.94;;;20.35;40.75
46710;BME280;32442;51.514;-0.178;2023-02-11T02:38:51;103289.41;;;20.32;40.68
46710;BME280;32442;51.514;-0.178;2023-02-11T02:41:20;103287.06;;;20.29;40.74
46710;BME280;32442;51.514;-0.178;2023-02-11T02:43:49;103293.78;;;20.28;40.81
46710;BME280;32442;51.514;-0.178;2023-02-11T02:46:18;103288.41;;;20.26;41.16
46710;BME280;32442;51.514;-0.178;2023-02-11T02:48:46;103280.25;;;20.25;40.86
46710;BME280;32442;51.514;-0.178;2023-02-11T03:11:17;103259.78;;;20.13;41.19
46710;BME280;32442;51.514;-0.178;2023-02-11T03:13:46;103249.69;;;20.12;41.16
46710;BME280;32442;51.514;-0.178;2023-02-11T03:16:16;103252.97;;;20.09;41.21
46710;BME280;32442;51.514;-0.178;2023-02-11T03:18:47;103263.59;;;20.07;41.58
46710;BME280;32442;51.514;-0.178;2023-02-11T03:21:15;103270.06;;;20.07;41.28
46710;BME280;32442;51.514;-0.178;2023-02-11T03:23:45;103260.44;;;20.03;41.81
46710;BME280;32442;51.514;-0.178;2023-02-11T03:26:20;103254.31;;;20.06;41.63
46710;BME280;32442;51.514;-0.178;2023-02-11T03:28:54;103254.31;;;20.06;41.80
46710;BME280;32442;51.514;-0.178;2023-02-11T03:36:25;103271.06;;;20.01;41.53
46710;BME280;32442;51.514;-0.178;2023-02-11T03:38:54;103273.25;;;19.99;41.88
46710;BME280;32442;51.514;-0.178;2023-02-11T03:41:23;103276.06;;;19.99;41.65
46710;BME280;32442;51.514;-0.178;2023-02-11T03:43:52;103274.09;;;19.99;41.61
46710;BME280;32442;51.514;-0.178;2023-02-11T03:46:21;103269.00;;;19.96;41.60
46710;BME280;32442;51.514;-0.178;2023-02-11T03:48:51;103266.69;;;19.93;41.64
46710;BME280;32442;51.514;-0.178;2023-02-11T03:51:20;103271.09;;;19.89;41.90
46710;BME280;32442;51.514;-0.178;2023-02-11T03:53:48;103259.38;;;19.92;41.84
46710;BME280;32442;51.514;-0.178;2023-02-11T03:56:16;103258.75;;;19.90;41.94
46710;BME280;32442;51.514;-0.178;2023-02-11T03:58:46;103264.63;;;19.89;42.04
46710;BME280;32442;51.514;-0.178;2023-02-11T04:01:13;103256.44;;;19.87;41.84
46710;BME280;32442;51.514;-0.178;2023-02-11T04:03:40;103255.84;;;19.85;42.27
46710;BME280;32442;51.514;-0.178;2023-02-11T04:06:07;103256.97;;;19.84;41.99
46710;BME280;32442;51.514;-0.178;2023-02-11T04:08:34;103263.31;;;19.80;42.34
46710;BME280;32442;51.514;-0.178;2023-02-11T04:11:01;103267.78;;;19.81;42.34
46710;BME280;32442;51.514;-0.178;2023-02-11T04:13:28;103259.66;;;19.79;41.98
46710;BME280;32442;51.514;-0.178;2023-02-11T04:15:55;103268.66;;;19.81;42.41
46710;BME280;32442;51.514;-0.178;2023-02-11T04:18:22;103266.97;;;19.80;42.12
46710;BME280;32442;51.514;-0.178;2023-02-11T04:20:49;103260.97;;;19.77;42.18
46710;BME280;32442;51.514;-0.178;2023-02-11T04:23:16;103271.59;;;19.75;42.42
46710;BME280;32442;51.514;-0.178;2023-02-11T04:25:43;103267.94;;;19.74;42.67
46710;BME280;32442;51.514;-0.178;2023-02-11T04:28:10;103267.94;;;19.74;42.23
46710;BME280;32442;51.514;-0.178;2023-02-11T04:30:36;103272.94;;;19.72;42.25
46710;BME280;32442;51.514;-0.178;2023-02-11T04:33:03;103273.78;;;19.73;42.28
46710;BME280;32442;51.514;-0.178;2023-02-11T04:35:30;103274.06;;;19.71;42.61
46710;BME280;32442;51.514;-0.178;2023-02-11T04:37:57;103266.97;;;19.69;42.34
46710;BME280;32442;51.514;-0.178;2023-02-11T04:40:24;103272.59;;;19.69;42.34
46710;BME280;32442;51.514;-0.178;2023-02-11T04:42:51;103274.81;;;19.67;42.81
46710;BME280;32442;51.514;-0.178;2023-02-11T04:45:18;103275.03;;;19.65;42.54
46710;BME280;32442;51.514;-0.178;2023-02-11T04:47:45;103275.28;;;19.64;42.55
46710;BME280;32442;51.514;-0.178;2023-02-11T04:50:12;103278.34;;;19.62;42.92
46710;BME280;32442;51.514;-0.178;2023-02-11T04:52:38;103285.91;;;19.62;42.62
46710;BME280;32442;51.514;-0.178;2023-02-11T04:55:05;103288.69;;;19.62;42.64
46710;BME280;32442;51.514;-0.178;2023-02-11T04:57:32;103283.84;;;19.57;42.69
46710;BME280;32442;51.514;-0.178;2023-02-11T04:59:59;103286.63;;;19.57;42.83
46710;BME280;32442;51.514;-0.178;2023-02-11T05:02:26;103287.72;;;19.56;42.68
46710;BME280;32442;51.514;-0.178;2023-02-11T05:04:53;103303.69;;;19.56;43.16
46710;BME280;32442;51.514;-0.178;2023-02-11T05:07:20;103301.13;;;19.54;42.88
46710;BME280;32442;51.514;-0.178;2023-02-11T05:09:47;103291.25;;;19.51;42.86
46710;BME280;32442;51.514;-0.178;2023-02-11T05:12:13;103294.06;;;19.51;42.86
46710;BME280;32442;51.514;-0.178;2023-02-11T05:14:40;103298.81;;;19.51;42.94
46710;BME280;32442;51.514;-0.178;2023-02-11T05:17:07;103290.91;;;19.48;43.40
46710;BME280;32442;51.514;-0.178;2023-02-11T05:19:34;103294.31;;;19.50;42.92
46710;BME280;32442;51.514;-0.178;2023-02-11T05:22:01;103290.06;;;19.47;43.29
46710;BME280;32442;51.514;-0.178;2023-02-11T05:24:30;103290.06;;;19.47;43.01
46710;BME280;32442;51.514;-0.178;2023-02-11T05:26:57;103294.56;;;19.48;43.49
46710;BME280;32442;51.514;-0.178;2023-02-11T05:29:24;103309.91;;;19.46;43.55
46710;BME280;32442;51.514;-0.178;2023-02-11T05:31:51;103314.94;;;19.44;43.37
46710;BME280;32442;51.514;-0.178;2023-02-11T05:34:18;103302.59;;;19.45;43.10
46710;BME280;32442;51.514;-0.178;2023-02-11T05:36:45;103311.47;;;19.42;43.32
46710;BME280;32442;51.514;-0.178;2023-02-11T05:39:12;103306.94;;;19.41;43.47
46710;BME280;32442;51.514;-0.178;2023-02-11T05:41:38;103317.31;;;19.40;43.57
46710;BME280;32442;51.514;-0.178;2023-02-11T05:44:05;103306.59;;;19.37;43.27
46710;BME280;32442;51.514;-0.178;2023-02-11T05:46:32;103307.44;;;19.38;43.26
46710;BME280;32442;51.514;-0.178;2023-02-11T05:48:59;103299.25;;;19.36;43.50
46710;BME280;32442;51.514;-0.178;2023-02-11T05:51:26;103304.88;;;19.36;43.45
46710;BME280;32442;51.514;-0.178;2023-02-11T05:53:53;103303.16;;;19.35;43.39
46710;BME280;32442;51.514;-0.178;2023-02-11T05:56:20;103301.72;;;19.33;43.33
46710;BME280;32442;51.514;-0.178;2023-02-11T05:58:46;103312.91;;;19.33;43.38
46710;BME280;32442;51.514;-0.178;2023-02-11T06:01:13;103310.63;;;19.30;43.57
46710;BME280;32442;51.514;-0.178;2023-02-11T06:03:40;103307.31;;;19.33;43.70
46710;BME280;32442;51.514;-0.178;2023-02-11T06:06:09;103300.00;;;19.32;43.83
46710;BME280;32442;51.514;-0.178;2023-02-11T06:08:37;103298.53;;;19.29;43.63
46710;BME280;32442;51.514;-0.178;2023-02-11T06:11:04;103291.59;;;19.32;43.91
46710;BME280;32442;51.514;-0.178;2023-02-11T06:13:31;103279.78;;;19.30;43.86
46710;BME280;32442;51.514;-0.178;2023-02-11T06:15:58;103280.88;;;19.29;43.56
46710;BME280;32442;51.514;-0.178;2023-02-11T06:18:26;103291.22;;;19.28;43.96
46710;BME280;32442;51.514;-0.178;2023-02-11T06:20:53;103295.13;;;19.27;43.70
46710;BME280;32442;51.514;-0.178;2023-02-11T06:23:20;103295.13;;;19.27;43.57
46710;BME280;32442;51.514;-0.178;2023-02-11T06:25:47;103286.34;;;19.24;43.71
46710;BME280;32442;51.514;-0.178;2023-02-11T06:28:15;103294.13;;;19.22;44.06
46710;BME280;32442;51.514;-0.178;2023-02-11T06:30:41;103300.59;;;19.22;44.07
46710;BME280;32442;51.514;-0.178;2023-02-11T06:33:09;103304.25;;;19.23;43.77
46710;BME280;32442;51.514;-0.178;2023-02-11T06:35:37;103294.13;;;19.22;43.70
46710;BME280;32442;51.514;-0.178;2023-02-11T06:38:05;103300.84;;;19.21;43.93
46710;BME280;32442;51.514;-0.178;2023-02-11T06:40:32;103304.50;;;19.21;43.85
46710;BME280;32442;51.514;-0.178;2023-02-11T06:42:59;103306.69;;;19.19;43.81
46710;BME280;32442;51.514;-0.178;2023-02-11T06:45:26;103304.97;;;19.18;43.51
46710;BME280;32442;51.514;-0.178;2023-02-11T06:47:53;103317.03;;;19.19;43.76
46710;BME280;32442;51.514;-0.178;2023-02-11T06:50:20;103321.78;;;19.18;43.85
46710;BME280;32442;51.514;-0.178;2023-02-11T06:52:47;103324.22;;;19.15;43.75
46710;BME280;32442;51.514;-0.178;2023-02-11T06:55:14;103322.06;;;19.17;43.93
46710;BME280;32442;51.514;-0.178;2023-02-11T06:57:40;103327.91;;;19.15;43.76
46710;BME280;32442;51.514;-0.178;2023-02-11T07:00:08;103325.09;;;19.15;43.82
46710;BME280;32442;51.514;-0.178;2023-02-11T07:02:35;103327.53;;;19.12;44.19
46710;BME280;32442;51.514;-0.178;2023-02-11T07:05:03;103325.31;;;19.14;43.61
46710;BME280;32442;51.514;-0.178;2023-02-11T07:07:30;103326.41;;;19.13;44.06
46710;BME280;32442;51.514;-0.178;2023-02-11T07:09:59;103333.72;;;19.14;44.06
46710;BME280;32442;51.514;-0.178;2023-02-11T07:12:28;103327.25;;;19.13;43.98
46710;BME280;32442;51.514;-0.178;2023-02-11T07:14:56;103333.13;;;19.12;43.80
46710;BME280;32442;51.514;-0.178;2023-02-11T07:17:23;103329.47;;;19.11;43.55
46710;BME280;32442;51.514;-0.178;2023-02-11T07:19:49;103326.66;;;19.11;43.89
46710;BME280;32442;51.514;-0.178;2023-02-11T07:22:16;103342.00;;;19.08;43.58
46710;BME280;32442;51.514;-0.178;2023-02-11T07:24:43;103346.75;;;19.08;44.09
46710;BME280;32442;51.514;-0.178;2023-02-11T07:27:10;103352.34;;;19.08;43.95
46710;BME280;32442;51.514;-0.178;2023-02-11T07:29:37;103359.31;;;19.05;44.03
46710;BME280;32442;51.514;-0.178;2023-02-11T07:32:04;103353.69;;;19.05;43.96
46710;BME280;32442;51.514;-0.178;2023-02-11T07:34:31;103348.94;;;19.06;43.93
46710;BME280;32442;51.514;-0.178;2023-02-11T07:36:58;103367.69;;;19.05;44.12
46710;BME280;32442;51.514;-0.178;2023-02-11T07:39:25;103365.75;;;19.06;44.12
46710;BME280;32442;51.514;-0.178;2023-02-11T07:41:53;103372.69;;;19.03;43.96
46710;BME280;32442;51.514;-0.178;2023-02-11T07:44:19;103370.72;;;19.04;44.24
46710;BME280;32442;51.514;-0.178;2023-02-11T07:46:46;103369.88;;;19.03;44.30
46710;BME280;32442;51.514;-0.178;2023-02-11T07:49:14;103369.50;;;19.00;44.37
46710;BME280;32442;51.514;-0.178;2023-02-11T07:51:41;103360.88;;;19.01;44.06
46710;BME280;32442;51.514;-0.178;2023-02-11T07:54:08;103355.50;;;19.00;44.04
46710;BME280;32442;51.514;-0.178;2023-02-11T07:56:35;103363.03;;;18.99;43.96
46710;BME280;32442;51.514;-0.178;2023-02-11T07:59:02;103353.56;;;19.00;44.20
46710;BME280;32442;51.514;-0.178;2023-02-11T08:01:29;103360.25;;;18.99;44.19
46710;BME280;32442;51.514;-0.178;2023-02-11T08:03:56;103361.38;;;18.98;43.77
46710;BME280;32442;51.514;-0.178;2023-02-11T08:06:26;103366.34;;;18.96;43.83
46710;BME280;32442;51.514;-0.178;2023-02-11T08:08:53;103363.53;;;18.96;44.27
46710;BME280;32442;51.514;-0.178;2023-02-11T08:11:21;103363.75;;;18.95;44.03
46710;BME280;32442;51.514;-0.178;2023-02-11T08:13:49;103367.69;;;18.94;44.08
46710;BME280;32442;51.514;-0.178;2023-02-11T08:18:47;103365.72;;;18.94;44.26
46710;BME280;32442;51.514;-0.178;2023-02-11T08:21:14;103373.28;;;18.94;44.31
46710;BME280;32442;51.514;-0.178;2023-02-11T08:23:41;103382.78;;;18.93;44.25
46710;BME280;32442;51.514;-0.178;2023-02-11T08:28:39;103376.31;;;18.92;44.34
46710;BME280;32442;51.514;-0.178;2023-02-11T08:31:07;103375.09;;;18.88;44.09
46710;BME280;32442;51.514;-0.178;2023-02-11T08:33:34;103372.88;;;18.90;44.28
46710;BME280;32442;51.514;-0.178;2023-02-11T08:36:06;103377.41;;;18.91;44.15
46710;BME280;32442;51.514;-0.178;2023-02-11T08:38:33;103377.63;;;18.90;44.08
46710;BME280;32442;51.514;-0.178;2023-02-11T08:41:00;103387.38;;;18.87;44.08
46710;BME280;32442;51.514;-0.178;2023-02-11T08:43:27;103377.03;;;18.88;44.07
46710;BME280;32442;51.514;-0.178;2023-02-11T08:45:54;103383.50;;;18.88;44.44
46710;BME280;32442;51.514;-0.178;2023-02-11T08:48:21;103378.34;;;18.85;44.22
46710;BME280;32442;51.514;-0.178;2023-02-11T08:50:48;103383.72;;;18.87;44.41
46710;BME280;32442;51.514;-0.178;2023-02-11T08:53:15;103377.50;;;18.85;44.63
46710;BME280;32442;51.514;-0.178;2023-02-11T08:58:12;103380.31;;;18.85;44.31
46710;BME280;32442;51.514;-0.178;2023-02-11T09:00:39;103380.53;;;18.83;44.34
46710;BME280;32442;51.514;-0.178;2023-02-11T09:03:06;103374.94;;;18.83;44.25
46710;BME280;32442;51.514;-0.178;2023-02-11T09:05:32;103378.84;;;18.82;44.31
46710;BME280;32442;51.514;-0.178;2023-02-11T09:07:59;103374.31;;;18.81;44.71
46710;BME280;32442;51.514;-0.178;2023-02-11T09:10:26;103379.06;;;18.81;44.37
46710;BME280;32442;51.514;-0.178;2023-02-11T09:12:53;103380.16;;;18.80;44.77
46710;BME280;32442;51.514;-0.178;2023-02-11T09:15:20;103374.16;;;18.76;44.78
46710;BME280;32442;51.514;-0.178;2023-02-11T09:17:47;103374.44;;;18.75;44.46
46710;BME280;32442;51.514;-0.178;2023-02-11T09:20:14;103384.28;;;18.77;44.42
46710;BME280;32442;51.514;-0.178;2023-02-11T09:22:41;103378.47;;;18.79;44.85
46710;BME280;32442;51.514;-0.178;2023-02-11T09:25:08;103386.22;;;18.77;44.69
46710;BME280;32442;51.514;-0.178;2023-02-11T09:27:35;103376.13;;;18.76;44.64
46710;BME280;32442;51.514;-0.178;2023-02-11T09:30:02;103382.13;;;18.79;44.73
46710;BME280;32442;51.514;-0.178;2023-02-11T09:32:29;103390.53;;;18.79;44.67
46710;BME280;32442;51.514;-0.178;2023-02-11T09:34:56;103388.56;;;18.80;45.07
46710;BME280;32442;51.514;-0.178;2023-02-11T09:37:23;103389.31;;;18.87;44.91
46710;BME280;32442;51.514;-0.178;2023-02-11T09:39:50;103384.72;;;18.92;45.13
46710;BME280;32442;51.514;-0.178;2023-02-11T09:44:47;103385.16;;;18.41;43.48
46710;BME280;32442;51.514;-0.178;2023-02-11T09:49:43;103387.03;;;18.47;42.82
46710;BME280;32442;51.514;-0.178;2023-02-11T09:54:49;103386.72;;;18.74;43.46
46710;BME280;32442;51.514;-0.178;2023-02-11T09:57:19;103376.88;;;18.83;43.34
46710;BME280;32442;51.514;-0.178;2023-02-11T09:59:54;103404.09;;;18.94;43.00
46710;BME280;32442;51.514;-0.178;2023-02-11T10:14:47;103386.88;;;19.32;42.91
46710;BME280;32442;51.514;-0.178;2023-02-11T10:24:40;103389.75;;;19.55;42.33
46710;BME280;32442;51.514;-0.178;2023-02-11T10:29:40;103395.41;;;19.67;42.08
46710;BME280;32442;51.514;-0.178;2023-02-11T10:32:14;103397.22;;;19.73;41.96
46710;BME280;32442;51.514;-0.178;2023-02-11T10:34:48;103405.53;;;19.79;41.96
46710;BME280;32442;51.514;-0.178;2023-02-11T10:37:16;103407.31;;;19.85;41.96
46710;BME280;32442;51.514;-0.178;2023-02-11T10:39:43;103406.59;;;19.90;42.21
46710;BME280;32442;51.514;-0.178;2023-02-11T10:42:10;103417.72;;;19.96;41.80
46710;BME280;32442;51.514;-0.178;2023-02-11T10:44:40;103414.19;;;20.01;41.66
46710;BME280;32442;51.514;-0.178;2023-02-11T10:47:12;103419.06;;;20.06;41.44
46710;BME280;32442;51.514;-0.178;2023-02-11T10:49:42;103428.19;;;20.13;41.67
46710;BME280;32442;51.514;-0.178;2023-02-11T10:52:11;103425.75;;;20.16;41.47
46710;BME280;32442;51.514;-0.178;2023-02-11T10:54:39;103411.22;;;20.19;41.26
46710;BME280;32442;51.514;-0.178;2023-02-11T10:57:06;103413.28;;;20.24;41.36
46710;BME280;32442;51.514;-0.178;2023-02-11T10:59:33;103413.91;;;20.26;40.83
46710;BME280;32442;51.514;-0.178;2023-02-11T11:02:18;103419.41;;;20.32;41.18
46710;BME280;32442;51.514;-0.178;2023-02-11T11:04:46;103411.59;;;20.34;41.09
46710;BME280;32442;51.514;-0.178;2023-02-11T11:09:46;103413.41;;;20.40;40.77
46710;BME280;32442;51.514;-0.178;2023-02-11T11:14:48;103416.09;;;20.47;40.77
46710;BME280;32442;51.514;-0.178;2023-02-11T11:17:19;103424.00;;;20.50;40.92
46710;BME280;32442;51.514;-0.178;2023-02-11T11:19:50;103426.06;;;20.55;40.65
46710;BME280;32442;51.514;-0.178;2023-02-11T11:22:19;103431.81;;;20.60;40.83
46710;BME280;32442;51.514;-0.178;2023-02-11T11:24:46;103424.84;;;20.62;40.70
46710;BME280;32442;51.514;-0.178;2023-02-11T11:27:20;103432.53;;;20.67;40.51
46710;BME280;32442;51.514;-0.178;2023-02-11T11:29:50;103423.38;;;20.71;40.20
46710;BME280;32442;51.514;-0.178;2023-02-11T11:32:19;103412.47;;;20.75;40.45
46710;BME280;32442;51.514;-0.178;2023-02-11T11:34:48;103406.34;;;20.78;40.29
46710;BME280;32442;51.514;-0.178;2023-02-11T11:39:52;103416.06;;;20.87;40.34
46710;BME280;32442;51.514;-0.178;2023-02-11T11:42:23;103415.31;;;20.92;40.07
46710;BME280;32442;51.514;-0.178;2023-02-11T11:47:23;103404.75;;;20.99;39.82
46710;BME280;32442;51.514;-0.178;2023-02-11T11:52:25;103408.06;;;21.07;39.90
46710;BME280;32442;51.514;-0.178;2023-02-11T11:57:29;103405.72;;;21.16;39.57
46710;BME280;32442;51.514;-0.178;2023-02-11T11:59:57;103403.47;;;21.18;39.95
46710;BME280;32442;51.514;-0.178;2023-02-11T12:04:57;103405.28;;;21.24;39.46
46710;BME280;32442;51.514;-0.178;2023-02-11T12:29:55;103397.72;;;21.41;39.25
46710;BME280;32442;51.514;-0.178;2023-02-11T12:32:28;103395.16;;;21.40;39.31
46710;BME280;32442;51.514;-0.178;2023-02-11T12:35:03;103396.00;;;21.40;39.35
46710;BME280;32442;51.514;-0.178;2023-02-11T12:42:38;103402.50;;;21.41;39.25
46710;BME280;32442;51.514;-0.178;2023-02-11T12:50:22;103391.84;;;21.43;39.44
46710;BME280;32442;51.514;-0.178;2023-02-11T12:55:19;103397.72;;;21.41;39.80
46710;BME280;32442;51.514;-0.178;2023-02-11T12:57:47;103390.38;;;21.40;39.25
46710;BME280;32442;51.514;-0.178;2023-02-11T13:00:17;103393.72;;;21.37;39.67
46710;BME280;32442;51.514;-0.178;2023-02-11T13:02:48;103395.66;;;21.37;39.58
46710;BME280;32442;51.514;-0.178;2023-02-11T13:07:48;103400.44;;;21.36;39.11
46710;BME280;32442;51.514;-0.178;2023-02-11T13:12:47;103389.81;;;21.38;39.08
46710;BME280;32442;51.514;-0.178;2023-02-11T13:15:19;103389.03;;;21.43;38.97
46710;BME280;32442;51.514;-0.178;2023-02-11T13:22:45;103389.69;;;21.50;38.96
46710;BME280;32442;51.514;-0.178;2023-02-11T13:37:45;103373.16;;;21.70;38.78
46710;BME280;32442;51.514;-0.178;2023-02-11T13:42:46;103374.94;;;21.76;38.65
46710;BME280;32442;51.514;-0.178;2023-02-11T13:45:17;103380.06;;;21.79;38.43
46710;BME280;32442;51.514;-0.178;2023-02-11T13:47:54;103374.16;;;21.81;38.28
46710;BME280;32442;51.514;-0.178;2023-02-11T13:50:22;103379.28;;;21.84;38.47
46710;BME280;32442;51.514;-0.178;2023-02-11T13:52:56;103382.69;;;21.86;38.59
46710;BME280;32442;51.514;-0.178;2023-02-11T13:55:24;103373.13;;;21.87;38.32
46710;BME280;32442;51.514;-0.178;2023-02-11T14:05:28;103372.34;;;21.91;37.99
46710;BME280;32442;51.514;-0.178;2023-02-11T14:20:37;103373.13;;;21.87;37.85
46710;BME280;32442;51.514;-0.178;2023-02-11T14:23:15;103364.69;;;21.87;38.03
46710;BME280;32442;51.514;-0.178;2023-02-11T14:25:50;103369.75;;;21.85;38.22
46710;BME280;32442;51.514;-0.178;2023-02-11T14:28:22;103374.75;;;21.83;37.96
46710;BME280;32442;51.514;-0.178;2023-02-11T14:30:54;103370.84;;;21.84;37.95
46710;BME280;32442;51.514;-0.178;2023-02-11T14:33:32;103370.25;;;21.82;37.97
46710;BME280;32442;51.514;-0.178;2023-02-11T14:43:37;103373.25;;;21.75;37.96
46710;BME280;32442;51.514;-0.178;2023-02-11T14:46:05;103374.34;;;21.74;37.81
46710;BME280;32442;51.514;-0.178;2023-02-11T14:48:33;103375.69;;;21.71;37.58
46710;BME280;32442;51.514;-0.178;2023-02-11T14:51:02;103375.97;;;21.70;37.89
46710;BME280;32442;51.514;-0.178;2023-02-11T14:53:32;103377.09;;;21.69;38.04
46710;BME280;32442;51.514;-0.178;2023-02-11T14:56:00;103370.28;;;21.65;37.95
46710;BME280;32442;51.514;-0.178;2023-02-11T14:58:28;103371.13;;;21.65;37.89
46710;BME280;32442;51.514;-0.178;2023-02-11T15:05:55;103383.59;;;21.53;38.03
46710;BME280;32442;51.514;-0.178;2023-02-11T15:08:23;103384.69;;;21.52;37.83
46710;BME280;32442;51.514;-0.178;2023-02-11T15:10:51;103371.63;;;21.46;38.00
46710;BME280;32442;51.514;-0.178;2023-02-11T15:13:20;103382.03;;;21.45;38.35
46710;BME280;32442;51.514;-0.178;2023-02-11T15:15:54;103385.63;;;21.41;38.09
46710;BME280;32442;51.514;-0.178;2023-02-11T15:18:24;103387.84;;;21.39;38.41
46710;BME280;32442;51.514;-0.178;2023-02-11T15:20:56;103388.09;;;21.37;38.25
46710;BME280;32442;51.514;-0.178;2023-02-11T15:23:24;103379.56;;;21.32;38.16
46710;BME280;32442;51.514;-0.178;2023-02-11T15:25:52;103380.09;;;21.29;38.30
46710;BME280;32442;51.514;-0.178;2023-02-11T15:28:22;103386.81;;;21.28;38.53
46710;BME280;32442;51.514;-0.178;2023-02-11T15:33:21;103388.75;;;21.27;38.30
46710;BME280;32442;51.514;-0.178;2023-02-11T15:35:50;103388.94;;;21.21;38.35
46710;BME280;32442;51.514;-0.178;2023-02-11T15:38:18;103383.03;;;21.22;38.28
46710;BME280;32442;51.514;-0.178;2023-02-11T15:43:16;103374.50;;;21.17;38.30
46710;BME280;32442;51.514;-0.178;2023-02-11T15:45:43;103368.03;;;21.17;38.15
46710;BME280;32442;51.514;-0.178;2023-02-11T15:50:49;103385.03;;;21.10;38.26
46710;BME280;32442;51.514;-0.178;2023-02-11T15:55:49;103384.72;;;21.07;38.39
46710;BME280;32442;51.514;-0.178;2023-02-11T15:58:17;103385.81;;;21.06;38.12
46710;BME280;32442;51.514;-0.178;2023-02-11T16:00:46;103386.31;;;21.03;38.25